createdAt,value
2023-04-17T00:00:20.630Z,11.42
2023-04-17T00:01:22.237Z,11.47
2023-04-17T00:02:25.666Z,11.49
2023-04-17T00:03:27.559Z,11.45
2023-04-17T00:04:31.050Z,11.49
2023-04-17T00:05:33.724Z,11.39
2023-04-17T00:06:35.412Z,11.26
2023-04-17T00:07:39.867Z,11.15
2023-04-17T00:08:41.398Z,10.95
2023-04-17T00:09:43.036Z,10.67
2023-04-17T00:10:48.853Z,10.76
2023-04-17T00:11:55.876Z,10.81
2023-04-17T00:12:57.482Z,10.89
2023-04-17T00:13:59.095Z,10.95
2023-04-17T00:15:00.986Z,11.03
2023-04-17T00:16:03.163Z,11.17
2023-04-17T00:17:04.952Z,11.24
2023-04-17T00:18:06.487Z,11.26
2023-04-17T00:19:08.085Z,11.25
2023-04-17T00:20:13.452Z,11.29
2023-04-17T00:21:15.035Z,11.34
2023-04-17T00:22:16.608Z,11.40
2023-04-17T00:23:18.188Z,11.45
2023-04-17T00:24:19.728Z,11.44
2023-04-17T00:25:21.327Z,11.44
2023-04-17T00:26:22.852Z,11.40
2023-04-17T00:27:24.355Z,11.33
2023-04-17T00:28:26.005Z,11.20
2023-04-17T00:29:27.644Z,11.19
2023-04-17T00:30:29.178Z,11.24
2023-04-17T00:31:31.175Z,11.27
2023-04-17T00:32:32.763Z,11.32
2023-04-17T00:33:34.631Z,11.33
2023-04-17T00:34:36.335Z,11.28
2023-04-17T00:35:38.062Z,11.17
2023-04-17T00:36:39.629Z,11.21
2023-04-17T00:37:41.192Z,11.26
2023-04-17T00:38:42.884Z,11.27
2023-04-17T00:39:44.618Z,11.21
2023-04-17T00:40:46.385Z,11.20
2023-04-17T00:41:48.030Z,11.22
2023-04-17T00:42:53.122Z,11.23
2023-04-17T00:43:54.723Z,11.19
2023-04-17T00:44:56.681Z,11.06
2023-04-17T00:45:58.755Z,10.96
2023-04-17T00:47:00.871Z,11.03
2023-04-17T00:48:04.939Z,11.02
2023-04-17T00:49:06.936Z,11.03
2023-04-17T00:50:08.952Z,11.10
2023-04-17T00:51:11.309Z,11.10
2023-04-17T00:52:15.530Z,11.10
2023-04-17T00:53:18.092Z,11.07
2023-04-17T00:54:22.798Z,11.01
2023-04-17T00:55:24.465Z,10.90
2023-04-17T00:56:26.169Z,10.69
2023-04-17T00:57:27.890Z,10.56
2023-04-17T00:58:30.155Z,10.32
2023-04-17T00:59:32.769Z,10.24
2023-04-17T01:00:35.232Z,10.22
2023-04-17T01:01:36.822Z,10.26
2023-04-17T01:02:38.721Z,10.25
2023-04-17T01:03:41.073Z,10.24
2023-04-17T01:04:42.929Z,10.18
2023-04-17T01:05:50.429Z,10.16
2023-04-17T01:06:53.394Z,10.15
2023-04-17T01:07:56.968Z,10.13
2023-04-17T01:08:58.634Z,10.15
2023-04-17T01:10:00.228Z,10.20
2023-04-17T01:11:01.757Z,10.27
2023-04-17T01:12:19.966Z,10.30
2023-04-17T01:13:21.878Z,10.35
2023-04-17T01:14:23.421Z,10.40
2023-04-17T01:15:25.088Z,10.35
2023-04-17T01:16:27.656Z,10.35
2023-04-17T01:17:29.428Z,10.37
2023-04-17T01:18:30.915Z,10.27
2023-04-17T01:19:32.565Z,10.25
2023-04-17T01:20:34.911Z,10.35
2023-04-17T01:21:36.429Z,10.37
2023-04-17T01:22:38.023Z,10.41
2023-04-17T01:23:43.418Z,10.32
2023-04-17T01:24:44.930Z,10.14
2023-04-17T01:25:46.564Z,10.10
2023-04-17T01:26:48.113Z,10.13
2023-04-17T01:27:49.790Z,10.24
2023-04-17T01:28:56.684Z,10.37
2023-04-17T01:29:58.262Z,10.45
2023-04-17T01:30:59.866Z,10.51
2023-04-17T01:32:01.645Z,10.58
2023-04-17T01:33:03.290Z,10.63
2023-04-17T01:34:04.873Z,10.50
2023-04-17T01:35:06.919Z,10.29
2023-04-17T01:36:08.721Z,10.28
2023-04-17T01:37:10.336Z,10.34
2023-04-17T01:38:11.862Z,10.40
2023-04-17T01:39:13.613Z,10.38
2023-04-17T01:40:15.770Z,10.21
2023-04-17T01:41:17.388Z,10.21
2023-04-17T01:42:18.954Z,10.33
2023-04-17T01:43:20.496Z,10.32
2023-04-17T01:44:22.108Z,10.33
2023-04-17T01:45:23.616Z,10.38
2023-04-17T01:46:25.609Z,10.45
2023-04-17T01:47:27.281Z,10.51
2023-04-17T01:48:28.827Z,10.59
2023-04-17T01:49:30.623Z,10.62
2023-04-17T01:50:32.166Z,10.63
2023-04-17T01:51:33.767Z,10.59
2023-04-17T01:52:36.502Z,10.61
2023-04-17T01:53:39.425Z,10.65
2023-04-17T01:54:40.954Z,10.61
2023-04-17T01:55:42.506Z,10.44
2023-04-17T01:56:44.085Z,10.24
2023-04-17T01:57:45.601Z,10.07
2023-04-17T01:58:47.196Z,9.88
2023-04-17T01:59:48.750Z,9.78
2023-04-17T02:00:50.482Z,9.71
2023-04-17T02:01:52.965Z,9.84
2023-04-17T02:02:54.677Z,9.97
2023-04-17T02:03:56.563Z,10.02
2023-04-17T02:04:58.166Z,10.10
2023-04-17T02:05:59.796Z,10.21
2023-04-17T02:07:01.332Z,10.30
2023-04-17T02:08:02.889Z,10.38
2023-04-17T02:09:04.559Z,10.44
2023-04-17T02:10:06.607Z,10.56
2023-04-17T02:11:08.247Z,10.64
2023-04-17T02:12:09.838Z,10.73
2023-04-17T02:13:11.444Z,10.76
2023-04-17T02:14:12.982Z,10.81
2023-04-17T02:15:14.567Z,10.78
2023-04-17T02:16:16.402Z,10.72
2023-04-17T02:17:18.298Z,10.60
2023-04-17T02:18:19.862Z,10.50
2023-04-17T02:19:21.496Z,10.48
2023-04-17T02:20:23.103Z,10.51
2023-04-17T02:21:24.685Z,10.58
2023-04-17T02:22:26.197Z,10.56
2023-04-17T02:23:27.763Z,10.31
2023-04-17T02:24:29.456Z,10.19
2023-04-17T02:25:31.085Z,10.03
2023-04-17T02:26:32.593Z,9.94
2023-04-17T02:27:34.132Z,9.85
2023-04-17T02:28:35.676Z,9.92
2023-04-17T02:29:37.216Z,9.97
2023-04-17T02:30:38.798Z,10.06
2023-04-17T02:31:41.564Z,10.15
2023-04-17T02:32:44.797Z,10.20
2023-04-17T02:33:46.588Z,10.22
2023-04-17T02:34:48.148Z,10.27
2023-04-17T02:35:49.843Z,10.36
2023-04-17T02:36:52.574Z,10.41
2023-04-17T02:37:54.290Z,10.37
2023-04-17T02:38:55.809Z,10.38
2023-04-17T02:39:57.314Z,10.48
2023-04-17T02:40:59.398Z,10.54
2023-04-17T02:42:03.048Z,10.59
2023-04-17T02:43:04.704Z,10.61
2023-04-17T02:44:06.313Z,10.58
2023-04-17T02:45:08.631Z,10.58
2023-04-17T02:46:10.506Z,10.63
2023-04-17T02:47:12.755Z,10.70
2023-04-17T02:48:14.817Z,10.78
2023-04-17T02:49:16.352Z,10.84
2023-04-17T02:50:17.980Z,10.90
2023-04-17T02:51:19.524Z,10.93
2023-04-17T02:52:21.128Z,10.98
2023-04-17T02:53:22.873Z,11.02
2023-04-17T02:54:24.500Z,10.97
2023-04-17T02:55:26.092Z,10.82
2023-04-17T02:56:27.620Z,10.74
2023-04-17T02:57:29.199Z,10.76
2023-04-17T02:58:31.083Z,10.83
2023-04-17T02:59:32.718Z,10.87
2023-04-17T03:00:34.337Z,10.89
2023-04-17T03:01:38.668Z,10.89
2023-04-17T03:02:41.048Z,10.95
2023-04-17T03:03:43.146Z,11.00
2023-04-17T03:04:45.002Z,11.07
2023-04-17T03:05:46.563Z,11.11
2023-04-17T03:06:48.100Z,11.18
2023-04-17T03:07:51.566Z,11.21
2023-04-17T03:08:53.627Z,11.10
2023-04-17T03:09:57.585Z,10.79
2023-04-17T03:10:59.165Z,10.52
2023-04-17T03:12:00.813Z,10.53
2023-04-17T03:13:03.658Z,10.63
2023-04-17T03:14:05.295Z,10.74
2023-04-17T03:15:08.948Z,10.79
2023-04-17T03:16:10.765Z,10.84
2023-04-17T03:17:15.159Z,10.87
2023-04-17T03:18:16.679Z,10.91
2023-04-17T03:19:18.231Z,10.94
2023-04-17T03:20:19.811Z,10.98
2023-04-17T03:21:21.328Z,10.99
2023-04-17T03:22:22.872Z,11.01
2023-04-17T03:23:24.441Z,10.94
2023-04-17T03:24:25.990Z,10.85
2023-04-17T03:25:27.583Z,10.75
2023-04-17T03:26:29.110Z,10.74
2023-04-17T03:27:30.947Z,10.71
2023-04-17T03:28:32.569Z,10.69
2023-04-17T03:29:34.191Z,10.64
2023-04-17T03:30:35.867Z,10.71
2023-04-17T03:31:37.394Z,10.75
2023-04-17T03:32:39.041Z,10.61
2023-04-17T03:33:40.952Z,10.37
2023-04-17T03:34:42.649Z,10.20
2023-04-17T03:35:46.543Z,10.10
2023-04-17T03:36:48.556Z,9.93
2023-04-17T03:37:50.221Z,9.79
2023-04-17T03:38:51.820Z,9.77
2023-04-17T03:39:53.375Z,9.75
2023-04-17T03:40:54.975Z,9.71
2023-04-17T03:41:56.730Z,9.56
2023-04-17T03:42:58.237Z,9.56
2023-04-17T03:43:59.761Z,9.64
2023-04-17T03:45:01.450Z,9.69
2023-04-17T03:46:03.038Z,9.75
2023-04-17T03:47:04.696Z,9.74
2023-04-17T03:48:07.423Z,9.73
2023-04-17T03:49:09.339Z,9.82
2023-04-17T03:50:11.329Z,9.96
2023-04-17T03:51:12.958Z,10.04
2023-04-17T03:52:14.772Z,10.13
2023-04-17T03:53:16.511Z,10.23
2023-04-17T03:54:18.056Z,10.34
2023-04-17T03:55:19.999Z,10.44
2023-04-17T03:56:22.070Z,10.43
2023-04-17T03:57:23.662Z,10.40
2023-04-17T03:58:25.289Z,10.42
2023-04-17T03:59:26.846Z,10.49
2023-04-17T04:00:28.688Z,10.55
2023-04-17T04:01:30.260Z,10.59
2023-04-17T04:02:31.864Z,10.64
2023-04-17T04:03:33.565Z,10.68
2023-04-17T04:04:35.464Z,10.73
2023-04-17T04:05:37.350Z,10.74
2023-04-17T04:06:39.589Z,10.77
2023-04-17T04:07:41.163Z,10.79
2023-04-17T04:08:42.720Z,10.84
2023-04-17T04:09:44.232Z,10.88
2023-04-17T04:10:46.229Z,10.88
2023-04-17T04:11:47.784Z,10.89
2023-04-17T04:12:49.316Z,10.86
2023-04-17T04:13:51.171Z,10.86
2023-04-17T04:14:52.691Z,10.88
2023-04-17T04:15:54.246Z,10.89
2023-04-17T04:16:56.105Z,10.92
2023-04-17T04:17:57.719Z,10.91
2023-04-17T04:18:59.277Z,10.92
2023-04-17T04:20:00.850Z,10.82
2023-04-17T04:21:02.578Z,10.80
2023-04-17T04:22:06.697Z,10.86
2023-04-17T04:23:08.594Z,10.86
2023-04-17T04:24:10.275Z,10.79
2023-04-17T04:25:12.375Z,10.84
2023-04-17T04:26:14.002Z,10.90
2023-04-17T04:27:18.328Z,10.96
2023-04-17T04:28:20.528Z,11.01
2023-04-17T04:29:25.681Z,11.05
2023-04-17T04:30:27.983Z,11.07
2023-04-17T04:31:30.715Z,11.05
2023-04-17T04:32:32.312Z,11.04
2023-04-17T04:33:33.850Z,11.02
2023-04-17T04:34:36.441Z,10.99
2023-04-17T04:35:38.540Z,11.01
2023-04-17T04:36:49.835Z,11.07
2023-04-17T04:37:55.302Z,11.14
2023-04-17T04:39:00.937Z,11.13
2023-04-17T04:40:02.616Z,11.08
2023-04-17T04:41:06.448Z,11.02
2023-04-17T04:42:10.025Z,11.07
2023-04-17T04:43:11.599Z,11.10
2023-04-17T04:44:13.882Z,11.05
2023-04-17T04:45:16.067Z,11.01
2023-04-17T04:46:17.637Z,10.95
2023-04-17T04:47:20.153Z,10.97
2023-04-17T04:48:21.810Z,11.04
2023-04-17T04:49:23.455Z,11.04
2023-04-17T04:50:25.012Z,10.87
2023-04-17T04:51:26.882Z,10.61
2023-04-17T04:52:28.505Z,10.50
2023-04-17T04:53:30.875Z,10.56
2023-04-17T04:54:32.749Z,10.53
2023-04-17T04:55:34.297Z,10.29
2023-04-17T04:56:35.801Z,10.20
2023-04-17T04:57:37.422Z,10.14
2023-04-17T04:58:38.928Z,10.08
2023-04-17T04:59:40.724Z,10.11
2023-04-17T05:00:43.672Z,10.24
2023-04-17T05:01:45.427Z,10.35
2023-04-17T05:02:47.249Z,10.48
2023-04-17T05:03:49.073Z,10.61
2023-04-17T05:04:52.237Z,10.74
2023-04-17T05:05:53.862Z,10.87
2023-04-17T05:06:57.035Z,10.99
2023-04-17T05:07:58.545Z,11.07
2023-04-17T05:09:00.122Z,11.10
2023-04-17T05:10:01.670Z,11.16
2023-04-17T05:11:03.702Z,11.21
2023-04-17T05:12:05.467Z,11.22
2023-04-17T05:13:07.042Z,11.26
2023-04-17T05:14:08.612Z,11.29
2023-04-17T05:15:10.715Z,11.34
2023-04-17T05:16:12.339Z,11.42
2023-04-17T05:17:13.971Z,11.46
2023-04-17T05:18:15.822Z,11.48
2023-04-17T05:19:17.408Z,11.55
2023-04-17T05:20:19.092Z,11.61
2023-04-17T05:21:20.615Z,11.65
2023-04-17T05:22:22.233Z,11.68
2023-04-17T05:23:23.762Z,11.67
2023-04-17T05:24:25.412Z,11.67
2023-04-17T05:25:26.985Z,11.68
2023-04-17T05:26:28.640Z,11.68
2023-04-17T05:27:30.857Z,11.71
2023-04-17T05:28:32.710Z,11.73
2023-04-17T05:29:34.334Z,11.78
2023-04-17T05:30:36.250Z,11.83
2023-04-17T05:31:37.848Z,11.88
2023-04-17T05:32:39.429Z,11.92
2023-04-17T05:33:40.970Z,11.97
2023-04-17T05:34:42.567Z,12.01
2023-04-17T05:35:44.116Z,12.06
2023-04-17T05:36:46.271Z,12.05
2023-04-17T05:37:47.844Z,12.06
2023-04-17T05:38:49.442Z,12.05
2023-04-17T05:39:51.064Z,12.07
2023-04-17T05:40:53.829Z,12.10
2023-04-17T05:41:56.206Z,12.07
2023-04-17T05:42:57.772Z,12.09
2023-04-17T05:43:59.302Z,12.17
2023-04-17T05:45:01.066Z,12.22
2023-04-17T05:46:02.849Z,12.07
2023-04-17T05:47:04.486Z,11.90
2023-04-17T05:48:06.299Z,11.75
2023-04-17T05:49:07.926Z,11.59
2023-04-17T05:50:09.990Z,11.50
2023-04-17T05:51:11.841Z,11.37
2023-04-17T05:52:13.408Z,11.29
2023-04-17T05:53:15.001Z,11.24
2023-04-17T05:54:16.608Z,11.13
2023-04-17T05:55:20.125Z,11.11
2023-04-17T05:56:21.685Z,11.08
2023-04-17T05:57:23.347Z,11.02
2023-04-17T05:58:24.934Z,11.00
2023-04-17T05:59:27.405Z,11.07
2023-04-17T06:00:29.281Z,11.12
2023-04-17T06:01:31.351Z,11.15
2023-04-17T06:02:32.989Z,11.15
2023-04-17T06:03:35.303Z,11.23
2023-04-17T06:04:37.317Z,11.29
2023-04-17T06:05:39.070Z,11.35
2023-04-17T06:06:40.622Z,11.43
2023-04-17T06:07:42.884Z,11.48
2023-04-17T06:08:44.402Z,11.52
2023-04-17T06:09:46.212Z,11.52
2023-04-17T06:10:50.080Z,11.54
2023-04-17T06:11:51.711Z,11.60
2023-04-17T06:12:53.815Z,11.68
2023-04-17T06:13:55.681Z,11.75
2023-04-17T06:14:57.302Z,11.78
2023-04-17T06:15:58.872Z,11.84
2023-04-17T06:17:00.568Z,11.90
2023-04-17T06:18:02.176Z,11.98
2023-04-17T06:19:03.732Z,12.04
2023-04-17T06:20:10.044Z,12.09
2023-04-17T06:21:11.654Z,12.11
2023-04-17T06:22:13.161Z,12.02
2023-04-17T06:23:14.680Z,12.04
2023-04-17T06:24:16.875Z,12.08
2023-04-17T06:25:19.079Z,11.99
2023-04-17T06:26:20.744Z,12.02
2023-04-17T06:27:22.226Z,11.92
2023-04-17T06:28:23.873Z,11.94
2023-04-17T06:29:25.429Z,11.96
2023-04-17T06:30:27.110Z,11.96
2023-04-17T06:31:28.721Z,11.95
2023-04-17T06:32:30.371Z,12.01
2023-04-17T06:33:31.963Z,12.09
2023-04-17T06:34:34.001Z,12.11
2023-04-17T06:35:36.762Z,12.18
2023-04-17T06:36:38.750Z,12.15
2023-04-17T06:37:40.445Z,12.22
2023-04-17T06:38:42.003Z,12.26
2023-04-17T06:39:43.498Z,12.32
2023-04-17T06:40:45.104Z,12.34
2023-04-17T06:41:46.684Z,12.36
2023-04-17T06:42:48.225Z,12.32
2023-04-17T06:43:49.783Z,12.26
2023-04-17T06:44:51.384Z,12.25
2023-04-17T06:45:53.133Z,12.27
2023-04-17T06:46:54.989Z,12.33
2023-04-17T06:47:56.613Z,12.38
2023-04-17T06:48:59.660Z,12.40
2023-04-17T06:50:01.177Z,12.41
2023-04-17T06:51:02.795Z,12.41
2023-04-17T06:52:04.627Z,12.41
2023-04-17T06:53:06.489Z,12.44
2023-04-17T06:54:10.084Z,12.41
2023-04-17T06:55:11.677Z,12.40
2023-04-17T06:56:13.286Z,12.40
2023-04-17T06:57:15.068Z,12.42
2023-04-17T06:58:16.651Z,12.43
2023-04-17T06:59:18.881Z,12.44
2023-04-17T07:00:21.243Z,12.46
2023-04-17T07:01:22.856Z,12.47
2023-04-17T07:02:24.713Z,12.47
2023-04-17T07:03:26.854Z,12.44
2023-04-17T07:04:30.726Z,12.19
2023-04-17T07:05:32.339Z,12.13
2023-04-17T07:06:34.686Z,12.03
2023-04-17T07:07:36.531Z,12.08
2023-04-17T07:08:38.249Z,12.18
2023-04-17T07:09:39.958Z,12.23
2023-04-17T07:10:41.524Z,12.30
2023-04-17T07:11:43.081Z,12.33
2023-04-17T07:12:44.769Z,12.30
2023-04-17T07:13:46.351Z,12.14
2023-04-17T07:14:47.871Z,12.18
2023-04-17T07:15:56.821Z,12.13
2023-04-17T07:16:58.681Z,12.10
2023-04-17T07:18:00.327Z,12.13
2023-04-17T07:19:01.983Z,12.27
2023-04-17T07:20:07.231Z,12.35
2023-04-17T07:21:08.795Z,12.40
2023-04-17T07:22:10.331Z,12.44
2023-04-17T07:23:11.853Z,12.44
2023-04-17T07:24:13.414Z,12.47
2023-04-17T07:25:14.938Z,12.48
2023-04-17T07:26:16.498Z,12.47
2023-04-17T07:27:18.092Z,12.25
2023-04-17T07:28:19.800Z,12.18
2023-04-17T07:29:21.349Z,12.16
2023-04-17T07:30:22.871Z,12.08
2023-04-17T07:31:25.187Z,12.11
2023-04-17T07:32:28.031Z,12.06
2023-04-17T07:33:29.632Z,12.05
2023-04-17T07:34:31.844Z,11.94
2023-04-17T07:35:33.435Z,11.74
2023-04-17T07:36:35.186Z,11.73
2023-04-17T07:37:37.190Z,11.74
2023-04-17T07:38:40.897Z,11.72
2023-04-17T07:39:42.713Z,11.65
2023-04-17T07:40:44.384Z,11.75
2023-04-17T07:41:45.932Z,11.81
2023-04-17T07:42:47.556Z,11.95
2023-04-17T07:43:49.078Z,12.02
2023-04-17T07:44:50.644Z,12.14
2023-04-17T07:45:52.175Z,12.24
2023-04-17T07:46:53.692Z,12.34
2023-04-17T07:47:55.484Z,12.48
2023-04-17T07:48:57.071Z,12.53
2023-04-17T07:49:58.628Z,12.65
2023-04-17T07:51:02.855Z,12.66
2023-04-17T07:52:04.450Z,12.72
2023-04-17T07:53:07.264Z,12.75
2023-04-17T07:54:08.819Z,12.74
2023-04-17T07:55:10.518Z,12.68
2023-04-17T07:56:13.211Z,12.53
2023-04-17T07:57:15.441Z,12.46
2023-04-17T07:58:17.034Z,12.53
2023-04-17T07:59:18.594Z,12.67
2023-04-17T08:00:21.515Z,12.74
2023-04-17T08:01:23.226Z,12.83
2023-04-17T08:02:25.056Z,12.91
2023-04-17T08:03:26.869Z,12.97
2023-04-17T08:04:28.920Z,13.04
2023-04-17T08:05:30.712Z,13.13
2023-04-17T08:06:32.359Z,13.11
2023-04-17T08:07:33.934Z,13.01
2023-04-17T08:08:35.506Z,12.96
2023-04-17T08:09:37.421Z,12.90
2023-04-17T08:10:38.950Z,12.93
2023-04-17T08:11:53.462Z,13.00
2023-04-17T08:12:58.317Z,13.12
2023-04-17T08:13:59.923Z,13.20
2023-04-17T08:15:01.450Z,13.29
2023-04-17T08:16:04.263Z,13.34
2023-04-17T08:17:07.468Z,13.38
2023-04-17T08:18:10.375Z,13.37
2023-04-17T08:19:12.199Z,13.42
2023-04-17T08:20:14.266Z,13.50
2023-04-17T08:21:15.952Z,13.50
2023-04-17T08:22:19.631Z,13.57
2023-04-17T08:23:21.239Z,13.63
2023-04-17T08:24:22.773Z,13.73
2023-04-17T08:25:25.231Z,13.74
2023-04-17T08:26:27.125Z,13.69
2023-04-17T08:27:28.784Z,13.67
2023-04-17T08:28:30.904Z,13.52
2023-04-17T08:29:32.442Z,13.16
2023-04-17T08:30:34.169Z,12.96
2023-04-17T08:31:40.432Z,12.75
2023-04-17T08:32:47.147Z,12.69
2023-04-17T08:33:49.080Z,12.75
2023-04-17T08:34:50.687Z,12.76
2023-04-17T08:35:52.290Z,12.76
2023-04-17T08:36:53.789Z,12.75
2023-04-17T08:37:58.820Z,12.74
2023-04-17T08:39:00.367Z,12.68
2023-04-17T08:40:04.504Z,12.66
2023-04-17T08:41:13.264Z,12.64
2023-04-17T08:42:18.428Z,12.65
2023-04-17T08:43:21.482Z,12.76
2023-04-17T08:44:23.046Z,12.78
2023-04-17T08:45:24.848Z,12.80
2023-04-17T08:46:27.386Z,12.82
2023-04-17T08:47:29.149Z,12.87
2023-04-17T08:48:31.296Z,12.95
2023-04-17T08:49:35.450Z,13.01
2023-04-17T08:50:37.232Z,13.10
2023-04-17T08:51:38.832Z,13.14
2023-04-17T08:52:42.337Z,13.22
2023-04-17T08:53:43.871Z,13.28
2023-04-17T08:54:45.452Z,13.33
2023-04-17T08:55:47.903Z,13.35
2023-04-17T08:56:49.434Z,13.37
2023-04-17T08:58:01.416Z,13.42
2023-04-17T08:59:03.028Z,13.47
2023-04-17T09:00:12.043Z,13.35
2023-04-17T09:01:19.819Z,13.41
2023-04-17T09:02:21.687Z,13.46
2023-04-17T09:03:23.548Z,13.50
2023-04-17T09:04:39.274Z,13.62
2023-04-17T09:05:43.895Z,13.55
2023-04-17T09:06:52.793Z,13.54
2023-04-17T09:08:11.299Z,13.58
2023-04-17T09:09:13.015Z,13.68
2023-04-17T09:10:14.724Z,13.78
2023-04-17T09:11:17.408Z,13.91
2023-04-17T09:12:20.548Z,14.03
2023-04-17T09:13:25.092Z,14.14
2023-04-17T09:14:30.630Z,14.25
2023-04-17T09:15:36.347Z,14.32
2023-04-17T09:16:54.657Z,14.31
2023-04-17T09:17:56.420Z,14.33
2023-04-17T09:19:06.079Z,14.41
2023-04-17T09:20:12.338Z,14.50
2023-04-17T09:21:16.801Z,14.60
2023-04-17T09:22:22.663Z,14.59
2023-04-17T09:23:24.320Z,14.62
2023-04-17T09:24:35.440Z,14.76
2023-04-17T09:25:37.081Z,14.81
2023-04-17T09:26:39.427Z,14.80
2023-04-17T09:27:40.983Z,14.87
2023-04-17T09:29:11.869Z,14.84
2023-04-17T09:30:14.518Z,14.97
2023-04-17T09:31:18.949Z,15.09
2023-04-17T09:32:20.581Z,15.23
2023-04-17T09:33:22.156Z,15.32
2023-04-17T09:34:23.803Z,15.36
2023-04-17T09:35:28.309Z,15.46
2023-04-17T09:36:32.192Z,15.50
2023-04-17T09:37:53.693Z,15.50
2023-04-17T09:38:55.986Z,15.36
2023-04-17T09:40:02.241Z,15.29
2023-04-17T09:41:03.949Z,15.39
2023-04-17T09:42:10.449Z,15.35
2023-04-17T09:43:12.474Z,15.33
2023-04-17T09:44:26.604Z,15.49
2023-04-17T09:45:36.934Z,15.59
2023-04-17T09:46:45.666Z,15.60
2023-04-17T09:47:48.218Z,15.68
2023-04-17T09:48:51.028Z,15.71
2023-04-17T09:49:53.116Z,15.75
2023-04-17T09:50:56.338Z,15.82
2023-04-17T09:51:58.151Z,15.85
2023-04-17T09:52:59.867Z,15.82
2023-04-17T09:54:06.945Z,15.81
2023-04-17T09:55:10.492Z,15.80
2023-04-17T09:56:13.671Z,15.91
2023-04-17T09:57:15.821Z,15.93
2023-04-17T09:58:18.287Z,15.96
2023-04-17T09:59:20.287Z,16.12
2023-04-17T10:00:23.813Z,16.16
2023-04-17T10:01:26.005Z,16.22
2023-04-17T10:02:28.482Z,16.25
2023-04-17T10:03:30.928Z,16.24
2023-04-17T10:04:33.540Z,16.13
2023-04-17T10:05:35.316Z,16.04
2023-04-17T10:06:37.175Z,15.84
2023-04-17T10:07:39.257Z,15.79
2023-04-17T10:08:41.336Z,15.67
2023-04-17T10:09:45.772Z,15.60
2023-04-17T10:10:48.716Z,15.75
2023-04-17T10:11:50.703Z,15.82
2023-04-17T10:12:56.232Z,15.83
2023-04-17T10:14:23.702Z,15.78
2023-04-17T10:15:26.268Z,15.83
2023-04-17T10:16:35.927Z,15.77
2023-04-17T10:17:37.709Z,15.57
2023-04-17T10:18:39.598Z,15.47
2023-04-17T10:19:41.255Z,15.49
2023-04-17T10:20:45.056Z,15.56
2023-04-17T10:21:50.771Z,15.68
2023-04-17T10:22:56.551Z,15.85
2023-04-17T10:23:59.409Z,16.02
2023-04-17T10:25:13.004Z,16.12
2023-04-17T10:26:29.853Z,16.26
2023-04-17T10:27:31.765Z,16.35
2023-04-17T10:28:48.662Z,16.44
2023-04-17T10:29:58.243Z,16.28
2023-04-17T10:31:01.283Z,16.25
2023-04-17T10:32:09.094Z,16.38
2023-04-17T10:33:13.508Z,16.31
2023-04-17T10:34:34.735Z,16.53
2023-04-17T10:35:36.795Z,16.65
2023-04-17T10:36:38.297Z,16.80
2023-04-17T10:37:51.869Z,16.92
2023-04-17T10:38:53.488Z,16.93
2023-04-17T10:40:02.342Z,16.86
2023-04-17T10:41:09.058Z,16.92
2023-04-17T10:42:18.496Z,16.89
2023-04-17T10:43:20.039Z,16.93
2023-04-17T10:44:21.713Z,16.94
2023-04-17T10:45:23.355Z,17.04
2023-04-17T10:46:26.319Z,16.90
2023-04-17T10:47:33.804Z,16.89
2023-04-17T10:48:38.081Z,17.02
2023-04-17T10:49:54.929Z,17.10
2023-04-17T10:50:56.981Z,17.10
2023-04-17T10:51:58.504Z,17.23
2023-04-17T10:53:00.054Z,17.37
2023-04-17T10:54:10.517Z,17.41
2023-04-17T10:55:17.421Z,17.27
2023-04-17T10:56:35.501Z,17.07
2023-04-17T10:58:02.209Z,17.12
2023-04-17T10:59:05.660Z,17.17
2023-04-17T11:00:14.037Z,17.28
2023-04-17T11:01:16.269Z,17.16
2023-04-17T11:02:18.037Z,17.01
2023-04-17T11:03:23.278Z,16.98
2023-04-17T11:04:29.581Z,16.91
2023-04-17T11:05:31.809Z,17.04
2023-04-17T11:06:37.943Z,17.10
2023-04-17T11:07:39.541Z,17.09
2023-04-17T11:08:42.198Z,17.04
2023-04-17T11:09:52.004Z,17.20
2023-04-17T11:10:55.895Z,17.34
2023-04-17T11:12:04.151Z,17.34
2023-04-17T11:13:06.127Z,17.33
2023-04-17T11:14:13.606Z,17.42
2023-04-17T11:15:18.826Z,17.42
2023-04-17T11:16:22.438Z,17.54
2023-04-17T11:17:24.120Z,17.42
2023-04-17T11:18:26.759Z,17.34
2023-04-17T11:19:28.435Z,17.35
2023-04-17T11:20:32.459Z,17.52
2023-04-17T11:21:34.029Z,17.72
2023-04-17T11:22:36.367Z,17.89
2023-04-17T11:23:39.242Z,18.01
2023-04-17T11:24:40.823Z,17.84
2023-04-17T11:25:43.395Z,17.70
2023-04-17T11:26:47.277Z,17.80
2023-04-17T11:27:55.134Z,17.98
2023-04-17T11:28:56.683Z,17.84
2023-04-17T11:29:58.194Z,17.79
2023-04-17T11:30:59.977Z,17.67
2023-04-17T11:32:01.564Z,17.49
2023-04-17T11:33:06.475Z,17.41
2023-04-17T11:34:09.731Z,17.33
2023-04-17T11:35:11.746Z,17.31
2023-04-17T11:36:13.480Z,17.26
2023-04-17T11:37:15.118Z,17.28
2023-04-17T11:38:22.452Z,17.20
2023-04-17T11:39:29.997Z,17.00
2023-04-17T11:40:31.784Z,16.98
2023-04-17T11:41:37.728Z,16.83
2023-04-17T11:42:45.477Z,16.79
2023-04-17T11:43:47.072Z,16.73
2023-04-17T11:44:48.703Z,16.84
2023-04-17T11:45:52.066Z,16.87
2023-04-17T11:46:55.770Z,16.96
2023-04-17T11:47:57.685Z,17.06
2023-04-17T11:48:59.294Z,17.10
2023-04-17T11:50:00.941Z,17.23
2023-04-17T11:51:06.584Z,17.31
2023-04-17T11:52:08.242Z,17.16
2023-04-17T11:53:13.707Z,17.12
2023-04-17T11:54:41.566Z,17.22
2023-04-17T11:55:44.031Z,17.14
2023-04-17T11:57:01.655Z,17.06
2023-04-17T11:58:06.711Z,17.17
2023-04-17T11:59:08.265Z,17.21
2023-04-17T12:00:16.654Z,17.16
2023-04-17T12:01:20.063Z,17.27
2023-04-17T12:02:32.867Z,17.39
2023-04-17T12:03:35.819Z,17.36
2023-04-17T12:04:39.720Z,17.10
2023-04-17T12:05:42.490Z,17.09
2023-04-17T12:06:44.124Z,17.11
2023-04-17T12:07:46.069Z,17.12
2023-04-17T12:08:53.582Z,17.14
2023-04-17T12:09:58.318Z,17.22
2023-04-17T12:10:59.886Z,17.42
2023-04-17T12:12:05.062Z,17.54
2023-04-17T12:13:07.046Z,17.55
2023-04-17T12:14:12.430Z,17.74
2023-04-17T12:15:14.233Z,17.87
2023-04-17T12:16:15.939Z,17.87
2023-04-17T12:17:17.578Z,17.70
2023-04-17T12:18:19.237Z,17.60
2023-04-17T12:19:20.950Z,17.63
2023-04-17T12:20:23.147Z,17.73
2023-04-17T12:21:25.905Z,17.76
2023-04-17T12:22:28.985Z,17.68
2023-04-17T12:23:31.116Z,17.76
2023-04-17T12:24:32.700Z,17.82
2023-04-17T12:25:34.973Z,17.74
2023-04-17T12:26:36.644Z,17.23
2023-04-17T12:27:38.803Z,17.03
2023-04-17T12:28:40.629Z,16.92
2023-04-17T12:29:44.528Z,16.77
2023-04-17T12:30:46.548Z,16.80
2023-04-17T12:31:48.167Z,16.75
2023-04-17T12:32:52.163Z,16.73
2023-04-17T12:33:53.786Z,16.78
2023-04-17T12:34:56.150Z,16.89
2023-04-17T12:35:58.230Z,17.07
2023-04-17T12:36:59.821Z,17.09
2023-04-17T12:38:01.486Z,17.22
2023-04-17T12:39:03.082Z,17.24
2023-04-17T12:40:06.012Z,17.29
2023-04-17T12:41:07.537Z,17.40
2023-04-17T12:42:09.130Z,17.45
2023-04-17T12:43:11.370Z,17.38
2023-04-17T12:44:13.100Z,17.31
2023-04-17T12:45:16.551Z,17.44
2023-04-17T12:46:18.396Z,17.54
2023-04-17T12:47:20.135Z,17.63
2023-04-17T12:48:21.718Z,17.70
2023-04-17T12:49:23.809Z,17.70
2023-04-17T12:50:25.395Z,17.69
2023-04-17T12:51:31.130Z,17.62
2023-04-17T12:52:32.776Z,17.77
2023-04-17T12:53:34.385Z,17.95
2023-04-17T12:54:36.025Z,17.97
2023-04-17T12:55:38.778Z,17.97
2023-04-17T12:56:40.460Z,17.99
2023-04-17T12:57:42.096Z,17.89
2023-04-17T12:58:43.613Z,17.76
2023-04-17T12:59:45.300Z,17.69
2023-04-17T13:00:47.158Z,17.65
2023-04-17T13:01:48.885Z,17.57
2023-04-17T13:02:50.637Z,17.43
2023-04-17T13:03:52.512Z,17.49
2023-04-17T13:04:54.225Z,17.60
2023-04-17T13:05:55.829Z,17.73
2023-04-17T13:06:57.925Z,17.85
2023-04-17T13:07:59.558Z,17.71
2023-04-17T13:09:01.129Z,17.52
2023-04-17T13:10:03.143Z,17.51
2023-04-17T13:11:05.174Z,17.54
2023-04-17T13:12:06.941Z,17.62
2023-04-17T13:13:09.026Z,17.71
2023-04-17T13:14:10.942Z,17.69
2023-04-17T13:15:15.620Z,17.84
2023-04-17T13:16:17.250Z,17.83
2023-04-17T13:17:18.993Z,17.68
2023-04-17T13:18:20.494Z,17.49
2023-04-17T13:19:22.210Z,17.46
2023-04-17T13:20:23.801Z,17.53
2023-04-17T13:21:25.341Z,17.66
2023-04-17T13:22:27.039Z,17.69
2023-04-17T13:23:28.904Z,17.42
2023-04-17T13:24:30.520Z,17.26
2023-04-17T13:25:32.617Z,17.30
2023-04-17T13:26:34.204Z,17.39
2023-04-17T13:27:36.432Z,17.46
2023-04-17T13:28:38.186Z,17.53
2023-04-17T13:29:39.821Z,17.60
2023-04-17T13:30:41.443Z,17.39